Time;durP1;ratioP1;P1;durP2;ratioP2;P2;SDS_P1;SDS_P2;PMS_P1;PMS_P2;Temp;Humidity;BMP_temperature;BMP_pressure;BME280_temperature;BME280_humidity;BME280_pressure;Samples;Min_cycle;Max_cycle;Signal;HPM_P1;HPM_P2
2024/03/12 00:00:59;;;;;;;5.00;2.92;;;;;;;13.98;53.70;98812.06;4970201;28;20033;-95
2024/03/12 00:03:28;;;;;;;6.75;2.67;;;;;;;14.11;53.71;98830.16;5000793;28;20415;-93
2024/03/12 00:05:55;;;;;;;6.70;2.65;;;;;;;14.08;53.93;98807.22;4982951;28;20117;-93
2024/03/12 00:08:21;;;;;;;5.20;2.83;;;;;;;14.04;54.03;98813.56;4974559;28;20041;-94
2024/03/12 00:10:47;;;;;;;4.47;2.45;;;;;;;14.10;53.88;98810.41;4970556;28;20459;-93
2024/03/12 00:13:13;;;;;;;6.13;2.60;;;;;;;14.06;53.66;98812.13;4984970;28;20030;-92
2024/03/12 00:15:38;;;;;;;8.27;2.70;;;;;;;14.12;53.69;98829.06;4984751;28;20026;-92
2024/03/12 00:18:05;;;;;;;7.75;2.60;;;;;;;14.05;53.81;98821.38;4967281;28;20021;-94
2024/03/12 00:20:33;;;;;;;6.40;2.60;;;;;;;14.08;53.55;98823.47;4968511;28;20022;-94
2024/03/12 00:22:59;;;;;;;7.65;2.67;;;;;;;14.09;53.67;98829.66;4969255;28;20037;-93
2024/03/12 00:25:24;;;;;;;4.28;2.50;;;;;;;13.97;53.87;98813.19;4983026;28;20022;-93
2024/03/12 00:27:56;;;;;;;5.97;2.85;;;;;;;14.00;53.93;98807.94;4968491;28;20018;-93
2024/03/12 00:30:25;;;;;;;4.80;2.70;;;;;;;14.00;53.98;98802.53;4969762;28;20094;-93
2024/03/12 00:32:54;;;;;;;8.63;2.75;;;;;;;14.08;54.11;98812.63;4967556;28;20026;-94
2024/03/12 00:35:23;;;;;;;4.18;2.92;;;;;;;14.06;54.43;98812.13;4968234;28;20113;-93
2024/03/12 00:37:50;;;;;;;5.80;2.85;;;;;;;13.80;54.42;98792.97;4967621;28;20026;-94
2024/03/12 00:40:20;;;;;;;6.50;2.70;;;;;;;14.03;54.44;98825.47;4968291;28;20504;-94
2024/03/12 00:42:46;;;;;;;6.75;2.80;;;;;;;13.83;54.66;98788.84;4983591;28;20018;-94
2024/03/12 00:45:12;;;;;;;6.20;2.75;;;;;;;13.93;54.83;98799.44;4966773;28;20010;-93
2024/03/12 00:47:41;;;;;;;12.18;3.15;;;;;;;14.01;54.87;98804.16;4967222;28;20463;-93
2024/03/12 00:50:11;;;;;;;7.13;2.72;;;;;;;13.80;54.86;98782.16;4967298;28;20107;-93
2024/03/12 00:52:40;;;;;;;4.72;2.65;;;;;;;14.07;54.63;98805.63;4967331;28;20030;-93
2024/03/12 00:55:09;;;;;;;4.28;3.13;;;;;;;13.92;54.90;98792.41;4988667;28;20102;-93
2024/03/12 00:57:38;;;;;;;6.20;2.85;;;;;;;13.99;54.64;98803.66;4972027;28;20064;-94
2024/03/12 01:00:16;;;;;;;11.65;2.70;;;;;;;13.97;54.90;98813.97;4986700;28;20036;-94
2024/03/12 01:02:44;;;;;;;10.48;3.60;;;;;;;13.94;54.87;98788.34;4975141;28;20120;-92
2024/03/12 01:05:10;;;;;;;10.85;3.08;;;;;;;13.95;54.80;98799.94;4991060;28;20463;-93
2024/03/12 01:07:41;;;;;;;6.70;3.25;;;;;;;13.87;54.87;98782.53;4990109;28;20025;-92
2024/03/12 01:10:31;;;;;;;8.07;3.20;;;;;;;13.93;54.90;98785.91;4973864;28;20030;-93
2024/03/12 01:13:01;;;;;;;5.00;3.20;;;;;;;13.98;54.91;98796.63;4996236;28;20029;-91
2024/03/12 01:15:28;;;;;;;14.25;3.55;;;;;;;13.99;54.95;98800.16;4972169;28;20120;-92
2024/03/12 01:17:54;;;;;;;6.80;3.10;;;;;;;14.03;55.03;98810.06;4971205;28;20112;-93
2024/03/12 01:20:21;;;;;;;7.15;3.55;;;;;;;13.95;54.90;98794.53;4987437;28;20006;-92
2024/03/12 01:22:48;;;;;;;5.97;3.60;;;;;;;13.99;55.10;98789.31;4969689;28;20029;-92
2024/03/12 01:25:13;;;;;;;6.05;4.10;;;;;;;14.03;54.92;98803.81;4986170;28;20087;-93
2024/03/12 01:27:42;;;;;;;8.43;3.85;;;;;;;13.94;54.96;98782.09;4971295;28;20025;-92
2024/03/12 01:30:14;;;;;;;6.30;3.65;;;;;;;13.98;55.24;98785.00;4998214;28;20038;-92
2024/03/12 01:32:44;;;;;;;8.43;4.00;;;;;;;13.85;55.29;98767.69;5002550;28;20025;-92
2024/03/12 01:35:09;;;;;;;11.50;4.15;;;;;;;13.85;55.05;98765.78;5003439;28;20045;-92
2024/03/12 01:37:49;;;;;;;5.10;3.67;;;;;;;13.94;55.45;98782.91;4982563;28;20034;-92
2024/03/12 01:40:19;;;;;;;6.53;4.25;;;;;;;13.92;55.37;98760.78;4984745;28;20022;-91
2024/03/12 01:43:01;;;;;;;6.75;3.50;;;;;;;13.86;55.78;98762.00;4952359;28;20033;-92
2024/03/12 01:45:27;;;;;;;9.32;3.95;;;;;;;13.93;55.60;98766.97;4982557;28;20026;-92
2024/03/12 01:47:56;;;;;;;7.97;3.90;;;;;;;13.92;55.58;98771.59;4976022;28;20471;-92
2024/03/12 01:50:24;;;;;;;7.18;3.50;;;;;;;13.88;55.83;98773.31;4985693;28;20026;-93
2024/03/12 01:52:54;;;;;;;7.03;3.35;;;;;;;13.81;55.77;98740.44;4985872;28;20553;-92
2024/03/12 01:55:19;;;;;;;7.32;3.95;;;;;;;13.72;55.80;98732.25;4986417;28;20030;-91
2024/03/12 01:57:48;;;;;;;6.20;3.30;;;;;;;13.73;56.24;98746.56;4999916;28;20049;-91
2024/03/12 02:00:14;;;;;;;6.60;3.45;;;;;;;13.70;56.09;98722.84;5022365;28;20108;-91
2024/03/12 02:02:44;;;;;;;5.75;3.28;;;;;;;13.65;55.93;98712.13;5005077;28;20510;-92
2024/03/12 02:05:10;;;;;;;6.82;3.30;;;;;;;13.77;55.89;98720.50;4988474;28;20025;-91
2024/03/12 02:07:38;;;;;;;6.97;3.40;;;;;;;13.85;55.90;98735.22;5020956;28;20021;-91
2024/03/12 02:10:05;;;;;;;9.65;3.88;;;;;;;13.71;55.98;98717.09;5021958;28;20026;-92
2024/03/12 02:12:31;;;;;;;6.05;3.42;;;;;;;13.66;56.09;98713.75;5004279;28;20069;-92
2024/03/12 02:15:02;;;;;;;7.72;3.38;;;;;;;13.82;55.98;98735.81;5005384;28;20069;-91
2024/03/12 02:17:28;;;;;;;5.70;3.20;;;;;;;13.72;56.01;98720.63;5022531;28;20100;-91
2024/03/12 02:19:53;;;;;;;7.05;3.42;;;;;;;13.72;55.82;98702.50;5004223;28;20029;-91
2024/03/12 02:22:19;;;;;;;8.60;3.60;;;;;;;13.72;55.82;98720.63;5021640;28;20087;-91
2024/03/12 02:24:46;;;;;;;8.35;3.45;;;;;;;13.73;56.12;98714.91;5021326;28;20025;-92
2024/03/12 02:27:12;;;;;;;9.43;3.88;;;;;;;13.48;56.55;98691.13;4989543;28;20521;-91
2024/03/12 02:29:38;;;;;;;6.55;3.58;;;;;;;13.53;56.32;98702.66;5005206;28;20104;-91
2024/03/12 02:32:04;;;;;;;7.07;3.40;;;;;;;13.59;56.30;98710.63;5004857;28;20076;-92
2024/03/12 02:34:29;;;;;;;7.65;3.90;;;;;;;13.70;56.14;98729.06;5020689;28;20446;-92
2024/03/12 02:36:55;;;;;;;6.95;3.45;;;;;;;13.71;56.17;98724.44;4989158;28;20029;-92
2024/03/12 02:39:21;;;;;;;7.82;3.80;;;;;;;13.60;55.90;98706.84;5021261;28;20436;-92
2024/03/12 02:41:47;;;;;;;4.65;3.17;;;;;;;13.63;56.12;98719.75;5021012;28;20025;-91
2024/03/12 02:44:12;;;;;;;6.55;3.65;;;;;;;13.61;55.93;98724.66;5020741;28;20030;-92
2024/03/12 02:46:38;;;;;;;6.15;3.53;;;;;;;13.61;56.37;98733.56;5017101;28;20033;-91
2024/03/12 02:49:03;;;;;;;7.20;3.95;;;;;;;13.44;56.41;98707.16;5020403;28;20467;-92
2024/03/12 02:51:29;;;;;;;5.45;3.50;;;;;;;13.48;56.11;98708.16;5036291;28;20029;-92
2024/03/12 02:53:54;;;;;;;9.20;3.83;;;;;;;13.33;56.94;98698.47;5014041;28;20526;-92
2024/03/12 02:56:20;;;;;;;7.65;3.78;;;;;;;13.35;56.84;98709.00;5036945;28;20029;-92
2024/03/12 02:58:47;;;;;;;6.80;3.55;;;;;;;13.38;56.91;98702.97;5004688;28;20053;-92
2024/03/12 03:01:14;;;;;;;9.73;4.03;;;;;;;13.31;57.04;98700.69;5017227;28;20018;-93
2024/03/12 03:03:40;;;;;;;8.07;4.00;;;;;;;13.41;56.80;98713.19;5017128;28;20112;-93
2024/03/12 03:06:06;;;;;;;7.38;3.95;;;;;;;13.23;57.31;98697.88;4983561;28;20061;-91
2024/03/12 03:08:31;;;;;;;6.90;4.05;;;;;;;13.28;57.90;98722.91;4984845;28;20057;-91
2024/03/12 03:10:57;;;;;;;8.45;3.90;;;;;;;13.29;57.51;98723.72;4983432;28;20400;-92
2024/03/12 03:13:22;;;;;;;7.53;4.10;;;;;;;13.13;57.56;98685.34;5018017;28;20021;-91
2024/03/12 03:15:48;;;;;;;8.43;4.28;;;;;;;13.31;57.46;98716.91;4983975;28;20480;-92
2024/03/12 03:18:14;;;;;;;8.23;4.72;;;;;;;13.20;57.82;98714.66;4984380;28;20061;-93
2024/03/12 03:20:39;;;;;;;7.97;4.13;;;;;;;13.11;58.00;98706.47;5002851;28;20021;-92
2024/03/12 03:23:05;;;;;;;10.23;4.50;;;;;;;13.19;57.93;98715.78;5000819;28;20022;-93
2024/03/12 03:25:30;;;;;;;11.68;4.28;;;;;;;13.35;57.72;98738.75;4984207;28;20298;-93
2024/03/12 03:27:56;;;;;;;9.30;4.40;;;;;;;13.18;57.88;98716.88;5001440;28;20022;-93
2024/03/12 03:30:21;;;;;;;9.23;4.20;;;;;;;13.19;57.92;98715.78;4967141;28;20025;-92
2024/03/12 03:32:47;;;;;;;12.27;4.15;;;;;;;13.22;57.91;98715.16;5018723;28;20026;-92
2024/03/12 03:35:13;;;;;;;8.45;4.40;;;;;;;13.15;57.94;98704.78;4984819;28;20022;-93
2024/03/12 03:37:40;;;;;;;9.43;4.07;;;;;;;13.18;57.86;98715.00;4984967;28;20022;-92
2024/03/12 03:40:28;;;;;;;8.05;4.13;;;;;;;13.37;57.91;98736.53;4968620;28;20022;-93
2024/03/12 03:42:55;;;;;;;7.68;4.22;;;;;;;13.28;58.06;98731.00;5003380;28;20042;-93
2024/03/12 03:45:22;;;;;;;12.20;4.82;;;;;;;13.31;59.22;98726.91;4985354;28;20088;-93
2024/03/12 03:47:47;;;;;;;14.52;4.45;;;;;;;13.45;60.21;98743.94;5001238;28;20024;-92
2024/03/12 03:50:13;;;;;;;7.43;4.40;;;;;;;13.45;60.31;98735.81;4985254;28;20080;-92
2024/03/12 03:52:38;;;;;;;7.82;4.22;;;;;;;13.36;60.72;98723.31;4983113;28;20511;-92
2024/03/12 03:55:05;;;;;;;15.68;4.82;;;;;;;13.38;60.50;98735.41;5001438;28;20033;-93
2024/03/12 03:57:31;;;;;;;9.68;5.47;;;;;;;13.33;60.88;98740.94;4989159;28;20053;-92
2024/03/12 03:59:56;;;;;;;10.60;6.93;;;;;;;13.52;60.63;98765.16;5019985;28;20022;-93
2024/03/12 04:02:22;;;;;;;13.50;6.18;;;;;;;13.33;60.82;98747.16;4987567;28;20021;-92
2024/03/12 04:04:49;;;;;;;8.75;4.93;;;;;;;13.40;62.06;98772.97;5003080;28;20557;-92
2024/03/12 04:07:15;;;;;;;10.38;5.43;;;;;;;13.29;64.29;98756.16;5020453;28;20402;-93
2024/03/12 04:09:41;;;;;;;8.18;4.63;;;;;;;13.11;65.94;98747.84;5000824;28;20120;-92
2024/03/12 04:12:08;;;;;;;7.30;5.45;;;;;;;13.07;66.78;98754.13;5028819;28;20124;-92
2024/03/12 04:14:33;;;;;;;10.32;5.30;;;;;;;12.91;68.33;98759.84;5003552;28;20022;-92
2024/03/12 04:17:01;;;;;;;10.70;5.85;;;;;;;12.84;68.72;98756.72;5000881;28;20043;-93
2024/03/12 04:19:31;;;;;;;9.50;6.40;;;;;;;12.65;69.24;98754.06;5015528;28;20024;-93
2024/03/12 04:21:58;;;;;;;12.60;7.53;;;;;;;12.61;70.44;98766.56;5016136;28;20025;-92
2024/03/12 04:24:25;;;;;;;11.68;8.13;;;;;;;12.51;70.65;98755.94;5013075;28;20030;-92
2024/03/12 04:26:54;;;;;;;13.70;8.15;;;;;;;12.48;71.27;98770.84;5003541;28;20045;-93
2024/03/12 04:29:20;;;;;;;13.13;8.40;;;;;;;12.28;71.92;98752.28;4983965;28;20026;-93
2024/03/12 04:31:45;;;;;;;15.07;8.52;;;;;;;12.33;72.15;98777.31;4989603;28;20033;-92
2024/03/12 04:34:11;;;;;;;15.68;8.73;;;;;;;12.23;72.45;98776.66;4991096;28;20036;-92
2024/03/12 04:36:36;;;;;;;14.93;8.43;;;;;;;12.24;73.18;98799.84;5002520;28;20407;-93
2024/03/12 04:41:47;;;;;;;15.10;8.70;;;;;;;12.30;73.79;98790.56;5005471;28;20092;-94
2024/03/12 04:44:13;;;;;;;11.95;7.10;;;;;;;12.15;73.96;98769.22;4986997;28;20029;-93
2024/03/12 04:46:43;;;;;;;8.07;6.07;;;;;;;12.16;72.63;98781.63;4987146;28;20022;-93
2024/03/12 04:49:08;;;;;;;12.15;6.80;;;;;;;12.21;74.30;98798.53;4987832;28;20029;-93
2024/03/12 04:51:34;;;;;;;10.55;6.22;;;;;;;12.03;74.20;98765.06;4987198;28;20022;-93
2024/03/12 04:54:00;;;;;;;9.48;5.22;;;;;;;11.97;74.37;98785.13;4972508;28;20027;-94
2024/03/12 04:56:26;;;;;;;10.40;5.82;;;;;;;11.85;74.47;98779.34;4987559;28;20022;-93
2024/03/12 04:58:51;;;;;;;12.25;5.70;;;;;;;11.84;74.43;98789.31;4995288;28;20414;-93
2024/03/12 05:01:20;;;;;;;10.05;5.40;;;;;;;11.76;73.94;98770.31;5016452;28;20025;-93
2024/03/12 05:03:46;;;;;;;7.82;5.45;;;;;;;11.78;74.18;98787.00;5003272;28;20110;-95
2024/03/12 05:06:12;;;;;;;9.25;4.90;;;;;;;11.95;74.26;98805.41;5001182;28;20053;-93
2024/03/12 05:08:38;;;;;;;9.55;6.03;;;;;;;11.84;74.76;98802.03;4986363;28;20562;-94
2024/03/12 05:11:05;;;;;;;13.65;5.82;;;;;;;11.68;75.44;98794.16;5001892;28;20030;-93
2024/03/12 05:13:31;;;;;;;7.55;5.28;;;;;;;11.67;75.77;98797.13;5002374;28;20030;-94
2024/03/12 05:15:57;;;;;;;42.20;24.92;;;;;;;11.73;76.11;98788.66;5002357;28;20021;-94
2024/03/12 05:21:55;;;;;;;12.75;7.80;;;;;;;11.79;75.89;98785.91;5010355;28;20508;-93
2024/03/12 05:24:21;;;;;;;15.18;9.18;;;;;;;11.71;77.49;98780.06;5018243;28;20196;-93
2024/03/12 05:26:55;;;;;;;15.95;8.43;;;;;;;11.87;76.77;98804.13;4986081;28;20030;-92
2024/03/12 05:29:26;;;;;;;15.57;10.38;;;;;;;11.85;75.46;98790.94;5011479;28;20196;-92
2024/03/12 05:31:51;;;;;;;14.40;9.70;;;;;;;11.85;76.22;98779.34;5000838;28;20049;-93
2024/03/12 05:34:19;;;;;;;27.50;10.57;;;;;;;11.81;77.23;98784.53;4992012;28;20026;-93
2024/03/12 05:36:51;;;;;;;11.60;6.90;;;;;;;11.83;76.99;98786.91;4990281;28;20065;-93
2024/03/12 05:39:20;;;;;;;15.63;7.35;;;;;;;11.85;76.59;98785.56;5002991;28;20034;-94
2024/03/12 05:41:52;;;;;;;17.63;11.90;;;;;;;11.94;75.45;98791.13;5019338;28;20096;-95
2024/03/12 05:49:45;;;;;;;11.23;7.20;;;;;;;11.93;72.82;98784.09;5007100;28;20100;-92
2024/03/12 05:52:11;;;;;;;11.57;8.15;;;;;;;11.96;72.22;98780.03;5018822;28;20034;-93
2024/03/12 05:54:40;;;;;;;9.88;6.18;;;;;;;12.09;71.28;98801.69;5002727;28;20468;-94
2024/03/12 05:57:05;;;;;;;12.35;7.88;;;;;;;12.07;71.28;98801.16;5003955;28;20029;-93
2024/03/12 05:59:31;;;;;;;10.23;6.78;;;;;;;11.96;71.11;98793.53;5013307;28;20038;-95
2024/03/12 06:01:58;;;;;;;11.15;6.78;;;;;;;12.05;72.68;98806.06;5005935;28;20025;-95
2024/03/12 06:04:23;;;;;;;13.82;7.88;;;;;;;11.99;73.35;98790.25;5026870;28;20041;-93
2024/03/12 06:06:49;;;;;;;11.90;7.88;;;;;;;11.97;73.22;98792.44;5025992;28;20078;-93
2024/03/12 06:09:22;;;;;;;10.57;6.45;;;;;;;12.02;72.66;98789.66;5017852;28;20026;-94
2024/03/12 06:11:47;;;;;;;11.40;6.53;;;;;;;11.85;73.75;98788.25;4986903;28;20029;-95
2024/03/12 06:14:13;;;;;;;5.20;3.67;;;;;;;11.96;72.08;98793.53;4985260;28;20096;-93
2024/03/12 06:16:43;;;;;;;5.38;3.45;;;;;;;12.08;72.96;98799.28;4970263;28;20168;-93
2024/03/12 06:19:10;;;;;;;9.57;4.88;;;;;;;11.88;73.38;98781.47;4986989;28;20030;-94
2024/03/12 06:21:35;;;;;;;10.43;7.63;;;;;;;11.80;74.25;98782.91;5001208;28;20023;-91
2024/03/12 06:24:01;;;;;;;11.50;8.32;;;;;;;11.75;75.36;98784.91;5022294;28;20124;-94
2024/03/12 06:26:27;;;;;;;8.98;4.70;;;;;;;11.55;74.31;98767.06;4988804;28;20047;-95
2024/03/12 06:28:52;;;;;;;9.63;6.30;;;;;;;11.62;75.16;98784.50;4987291;28;20025;-94
2024/03/12 06:32:42;;;;;;;9.98;4.63;;;;;;;11.64;75.85;98801.22;5022205;28;20021;-95
2024/03/12 06:34:43;;;;;;;6.75;3.63;;;;;;;11.81;75.98;98794.53;5009358;28;20052;-92
2024/03/12 06:37:09;;;;;;;64.72;46.80;;;;;;;11.36;76.48;98767.06;5006813;28;20026;-92
2024/03/12 06:39:35;;;;;;;30.15;20.77;;;;;;;11.50;76.30;98784.94;5036268;28;20081;-91
2024/03/12 06:42:02;;;;;;;5.70;4.25;;;;;;;11.73;76.09;98798.66;5020117;28;20117;-91
2024/03/12 06:48:52;;;;;;;;;;;;;;;;;;;;;
2024/03/12 06:51:31;;;;;;;5.38;3.38;;;;;;;11.95;74.15;98773.81;5019090;28;20113;-90
2024/03/12 06:53:58;;;;;;;6.85;3.53;;;;;;;11.77;74.02;98764.63;4972250;28;20022;-90
2024/03/12 06:56:57;;;;;;;6.32;3.70;;;;;;;11.81;73.83;98732.47;4987892;28;20052;-95
2024/03/12 06:59:33;;;;;;;6.47;3.75;;;;;;;12.03;72.87;98748.09;4954230;28;20045;-95
2024/03/12 07:01:59;;;;;;;4.18;1.85;;;;;;;12.13;71.24;98746.03;4956212;28;20046;-96
2024/03/12 07:04:33;;;;;;;7.35;3.80;;;;;;;12.31;70.12;98751.69;4988011;28;20109;-95
2024/03/12 07:10:29;;;;;;;5.70;1.95;;;;;;;12.74;69.43;98756.88;4940759;29;20042;-95
2024/03/12 07:12:58;;;;;;;3.25;1.70;;;;;;;12.69;68.28;98744.28;4910825;29;20046;-92
2024/03/12 07:15:44;;;;;;;5.88;1.70;;;;;;;12.77;68.56;98739.31;4957390;28;20064;-96
2024/03/12 07:18:11;;;;;;;7.47;3.92;;;;;;;12.90;68.03;98743.91;4996028;28;20105;-96
2024/03/12 07:26:10;;;;;;;6.40;4.53;;;;;;;13.39;68.13;98784.91;5019532;28;20046;-94
2024/03/12 07:28:46;;;;;;;5.72;3.25;;;;;;;13.27;66.08;98761.84;5001632;28;20034;-94
2024/03/12 07:32:03;;;;;;;10.05;4.68;;;;;;;13.38;65.61;98767.88;5003192;28;20098;-94
2024/03/12 07:34:15;;;;;;;5.47;2.65;;;;;;;13.15;65.24;98732.59;5006890;28;20030;-94
2024/03/12 07:36:42;;;;;;;5.05;2.95;;;;;;;13.23;65.33;98744.63;5005875;28;20029;-95
2024/03/12 07:39:24;;;;;;;3.20;2.03;;;;;;;13.26;65.16;98751.31;4986718;28;20030;-95
2024/03/12 07:42:05;;;;;;;3.55;1.60;;;;;;;13.20;67.19;98753.34;4992029;28;20022;-92
2024/03/12 07:44:35;;;;;;;4.45;2.17;;;;;;;13.24;66.81;98762.44;5020447;28;20120;-93
2024/03/12 07:47:04;;;;;;;17.95;8.90;;;;;;;13.09;66.98;98720.31;4987494;28;20037;-94
2024/03/12 07:49:54;;;;;;;5.43;3.25;;;;;;;12.99;66.18;98723.22;5004468;28;20041;-96
2024/03/12 07:52:22;;;;;;;5.88;3.03;;;;;;;12.96;67.53;98701.38;4975812;28;20014;-96
2024/03/12 07:55:02;;;;;;;4.95;3.45;;;;;;;13.24;67.45;98723.78;5146664;22;20058;-95
2024/03/12 07:57:55;;;;;;;4.68;3.00;;;;;;;13.09;67.57;98685.19;4986991;28;20045;-96
2024/03/12 08:00:42;;;;;;;4.28;2.53;;;;;;;13.13;67.24;98685.34;5019088;28;20022;-95
2024/03/12 08:03:36;;;;;;;3.75;2.42;;;;;;;13.24;67.57;98681.34;4991121;28;20026;-96
2024/03/12 08:06:28;;;;;;;101.03;44.63;;;;;;;13.18;67.59;98677.16;4957269;28;20018;-94
2024/03/12 09:19:24;;;;;;;5.75;1.70;;;;;;;14.20;62.44;98711.91;5015950;28;20543;-95
2024/03/12 09:22:22;;;;;;;;;;;;;;;;;;;;;
2024/03/12 09:31:46;;;;;;;;;;;;;;;;;;;;;
2024/03/12 09:34:41;;;;;;;;;;;;;;;;;;;;;
2024/03/12 09:46:16;;;;;;;;;;;;;;;;;;;;;
2024/03/12 09:52:25;;;;;;;17.75;10.85;;;;;;;15.07;59.95;98690.69;4974360;29;20493;-96
2024/03/12 09:55:13;;;;;;;5.15;3.22;;;;;;;15.14;59.81;98674.75;4954059;29;20063;-95
2024/03/12 09:57:53;;;;;;;6.95;3.17;;;;;;;15.32;59.89;98691.84;5019620;28;20048;-94
2024/03/12 10:03:05;;;;;;;7.53;2.70;;;;;;;15.16;59.90;98669.00;5018699;28;20048;-95
2024/03/12 10:05:46;;;;;;;8.38;2.20;;;;;;;15.35;58.69;98666.78;5032528;28;20078;-94
2024/03/12 10:08:16;;;;;;;9.95;3.58;;;;;;;15.52;58.54;98668.75;5033804;28;20119;-92
2024/03/12 10:11:01;;;;;;;15.57;3.28;;;;;;;15.73;57.76;98676.28;5014158;28;20067;-93
2024/03/12 10:13:28;;;;;;;7.75;2.22;;;;;;;15.60;55.80;98648.13;5030598;28;20032;-90
2024/03/12 10:16:06;;;;;;;4.78;2.30;;;;;;;15.67;54.54;98640.34;5031952;28;20028;-96
2024/03/12 10:18:47;;;;;;;;;;;;;;;;;;;;;
2024/03/12 10:22:12;;;;;;;3.85;1.02;;;;;;;15.96;48.32;98674.19;5037101;28;20044;-93
2024/03/12 10:25:30;;;;;;;5.93;1.00;;;;;;;16.01;46.81;98663.16;5050797;28;20071;-95
2024/03/12 10:28:22;;;;;;;7.70;1.80;;;;;;;16.14;45.58;98673.06;4954715;28;20075;-96
2024/03/12 10:34:59;;;;;;;4.57;2.47;;;;;;;16.17;49.59;98636.28;4994748;28;20091;-96
2024/03/12 10:38:21;;;;;;;;;;;;;;;;;;;;;
2024/03/12 10:41:17;;;;;;;3.45;0.93;;;;;;;16.53;46.66;98648.63;4901040;29;20141;-95
2024/03/12 10:44:31;;;;;;;;;;;;;;;;;;;;;
2024/03/12 10:47:08;;;;;;;10.38;1.50;;;;;;;17.12;45.32;98656.88;5003011;28;20069;-94
2024/03/12 10:50:23;;;;;;;6.63;2.95;;;;;;;17.36;44.45;98655.41;5032355;28;20029;-95
2024/03/12 10:59:31;;;;;;;;;;;;;;;;;;;;;
2024/03/12 11:02:16;;;;;;;;;;;;;;;;;;;;;
2024/03/12 11:04:48;;;;;;;3.42;1.27;;;;;;;16.93;52.63;98635.53;4996821;28;20125;-95
2024/03/12 11:07:19;;;;;;;1.95;1.40;;;;;;;16.78;53.12;98620.53;4989749;28;20117;-94
2024/03/12 11:18:48;;;;;;;3.30;1.52;;;;;;;16.96;52.09;98643.03;5005388;28;20041;-93
2024/03/12 11:22:08;;;;;;;3.72;1.70;;;;;;;16.69;52.61;98608.13;5012791;28;20029;-95
2024/03/12 11:26:02;;;;;;;;;;;;;;;;;;;;;
2024/03/12 11:47:51;;;;;;;3.55;1.80;;;;;;;16.25;53.03;98619.19;5051534;22;20060;-96
2024/03/12 12:12:47;;;;;;;9.70;2.20;;;;;;;17.68;48.89;98596.72;4930192;29;20040;-94
2024/03/12 12:15:58;;;;;;;;;;;;;;;;;;;;;
2024/03/12 12:18:32;;;;;;;5.20;2.28;;;;;;;17.63;50.69;98588.75;4908311;29;20131;-92
2024/03/12 12:22:15;;;;;;;3.35;1.50;;;;;;;17.67;50.93;98613.38;4893028;29;20047;-94
2024/03/12 12:24:38;;;;;;;5.22;2.25;;;;;;;17.65;51.76;98627.31;4940652;29;20032;-94
2024/03/12 12:27:13;;;;;;;6.63;3.08;;;;;;;17.46;52.71;98616.13;4908356;29;20050;-93
2024/03/12 12:30:49;;;;;;;;;;;;;;;;;;;;;
2024/03/12 12:51:06;;;;;;;9.90;6.47;;;;;;;16.71;56.61;98603.16;5063354;28;20060;-94
2024/03/12 12:53:59;;;;;;;10.25;6.53;;;;;;;16.39;56.60;98591.00;5010436;28;20063;-94
2024/03/12 12:56:28;;;;;;;9.73;6.47;;;;;;;16.34;56.41;98592.75;5013530;28;20043;-94
2024/03/12 12:59:13;;;;;;;13.40;4.78;;;;;;;16.22;54.56;98589.94;5015778;28;20032;-96
2024/03/12 13:08:26;;;;;;;10.33;4.90;;;;;;;15.93;54.71;98605.03;4997298;28;20066;-94
2024/03/12 13:14:11;;;;;;;12.95;7.15;;;;;;;15.62;56.81;98623.41;5074852;28;20037;-96
2024/03/12 13:17:08;;;;;;;;;;;;;;;;;;;;;
2024/03/12 13:19:34;;;;;;;14.38;7.80;;;;;;;14.97;59.00;98623.19;5032615;28;20104;-94
2024/03/12 13:22:40;;;;;;;14.50;10.00;;;;;;;14.59;61.08;98609.38;5033120;28;20043;-94
2024/03/12 13:27:56;;;;;;;24.92;14.98;;;;;;;14.52;62.89;98655.84;2949251;22;20061;-93
2024/03/12 13:30:34;;;;;;;20.88;12.30;;;;;;;14.13;64.20;98639.25;5030086;28;20127;-96
2024/03/12 13:36:11;;;;;;;28.70;13.75;;;;;;;14.03;66.33;98671.19;4980778;28;20043;-93
2024/03/12 13:39:00;;;;;;;24.58;13.25;;;;;;;13.94;67.68;98665.72;4953848;28;20079;-93
2024/03/12 13:41:58;;;;;;;24.60;13.27;;;;;;;14.06;67.23;98686.81;4937539;29;20035;-96
2024/03/12 13:44:32;;;;;;;20.98;12.77;;;;;;;13.98;66.51;98676.72;4950279;29;20040;-93
2024/03/12 14:35:36;;;;;;;29.83;17.23;;;;;;;12.19;75.69;98700.06;5007732;28;20076;-93
2024/03/12 14:38:27;;;;;;;23.98;13.75;;;;;;;12.07;75.40;98701.31;4991988;28;20034;-96
2024/03/12 14:41:02;;;;;;;25.30;12.43;;;;;;;12.19;74.80;98713.56;5010457;28;20089;-96
2024/03/12 14:43:51;;;;;;;20.92;12.10;;;;;;;12.26;74.36;98700.47;4994847;28;20018;-96
2024/03/12 14:46:59;;;;;;;20.73;13.73;;;;;;;12.27;76.59;98702.91;4957434;29;20114;-96
2024/03/12 14:49:35;;;;;;;25.67;13.10;;;;;;;12.19;77.27;98683.88;4952710;29;20066;-95
2024/03/12 14:52:57;;;;;;;23.35;12.82;;;;;;;12.42;74.22;98687.53;4938367;29;20031;-93
2024/03/12 14:58:20;;;;;;;23.55;12.55;;;;;;;12.05;74.86;98673.84;4935850;29;20047;-92
2024/03/12 15:00:45;;;;;;;23.25;13.18;;;;;;;12.44;74.65;98706.94;4918543;28;20059;-90
2024/03/12 15:03:13;;;;;;;22.63;12.88;;;;;;;12.45;75.04;98684.22;4944537;29;20030;-92
2024/03/12 15:05:43;;;;;;;21.98;13.65;;;;;;;12.60;74.84;98688.56;4944749;29;20051;-94
2024/03/12 15:08:18;;;;;;;23.70;13.30;;;;;;;12.64;75.05;98682.25;4936142;29;20039;-93
2024/03/12 15:10:46;;;;;;;25.40;15.15;;;;;;;12.76;73.23;98678.25;4944620;29;20046;-95
2024/03/12 15:13:36;;;;;;;;;;;;;;;;;;;;;
2024/03/12 15:16:02;;;;;;;29.60;14.15;;;;;;;12.70;74.54;98683.78;4936308;29;20114;-93
2024/03/12 15:21:56;;;;;;;22.33;12.30;;;;;;;12.31;75.18;98701.22;4982218;28;20049;-94
2024/03/12 15:24:32;;;;;;;;;;;;;;;;;;;;;
2024/03/12 15:27:02;;;;;;;22.10;12.65;;;;;;;12.54;75.64;98717.56;4983225;28;20091;-92
2024/03/12 15:29:38;;;;;;;23.88;13.45;;;;;;;12.45;76.25;98714.75;4981366;28;20014;-94
2024/03/12 15:32:11;;;;;;;24.70;13.50;;;;;;;12.42;76.96;98704.53;4967614;28;20065;-94
2024/03/12 15:34:37;;;;;;;25.63;12.43;;;;;;;12.68;73.73;98725.69;5006777;28;20049;-93
2024/03/12 15:37:17;;;;;;;22.45;13.30;;;;;;;12.57;72.36;98708.84;5010923;28;20092;-96
2024/03/12 15:39:47;;;;;;;19.88;12.18;;;;;;;12.40;72.79;98698.63;5188059;23;20058;-93
2024/03/12 15:42:24;;;;;;;16.90;12.35;;;;;;;12.47;71.24;98709.84;4993410;28;20049;-91
2024/03/12 15:44:49;;;;;;;23.52;12.70;;;;;;;12.43;70.98;98711.53;5000640;28;20029;-92
2024/03/12 15:47:15;;;;;;;21.98;12.48;;;;;;;12.33;71.09;98712.50;5036764;28;20033;-92
2024/03/12 15:49:42;;;;;;;20.88;12.20;;;;;;;12.31;71.46;98705.81;5040277;28;20033;-96
2024/03/12 15:52:18;;;;;;;20.70;12.07;;;;;;;12.36;71.63;98721.91;5008856;28;20037;-94
2024/03/12 15:54:47;;;;;;;23.85;11.95;;;;;;;12.15;70.90;98704.47;5024911;28;20030;-94
2024/03/12 15:57:59;;;;;;;;;;;;;;;;;;;;;
2024/03/12 16:00:25;;;;;;;18.90;11.05;;;;;;;12.10;71.87;98703.44;5371057;23;20058;-93
2024/03/12 16:02:51;;;;;;;17.50;11.45;;;;;;;12.09;71.04;98712.63;4976959;28;20054;-92
2024/03/12 16:05:22;;;;;;;18.63;11.75;;;;;;;12.15;70.91;98731.44;4984713;28;20026;-94
2024/03/12 16:07:49;;;;;;;19.02;11.25;;;;;;;12.00;71.13;98721.72;4973400;28;20033;-95
2024/03/12 16:10:15;;;;;;;17.75;10.98;;;;;;;11.86;72.04;98711.59;5038196;28;20063;-95
2024/03/12 16:12:43;;;;;;;21.13;11.57;;;;;;;11.97;71.32;98714.19;5006263;28;20026;-96
2024/03/12 16:15:09;;;;;;;18.85;12.18;;;;;;;11.98;71.67;98730.09;5039341;28;20025;-93
2024/03/12 16:17:40;;;;;;;23.23;12.25;;;;;;;11.91;71.84;98716.16;5006457;28;20034;-92
2024/03/12 16:20:14;;;;;;;20.25;12.48;;;;;;;11.91;71.71;98727.75;5038155;28;20502;-93
2024/03/12 16:22:49;;;;;;;19.10;11.85;;;;;;;11.77;72.72;98707.97;5006744;28;20391;-93
2024/03/12 16:25:22;;;;;;;20.10;12.35;;;;;;;11.66;73.09;98723.53;5042678;28;20537;-91
2024/03/12 16:28:04;;;;;;;20.60;11.93;;;;;;;11.45;73.94;98714.09;5010578;28;20550;-96
2024/03/12 16:30:30;;;;;;;20.35;11.13;;;;;;;11.57;73.04;98716.38;5025917;28;20479;-92
2024/03/12 16:33:05;;;;;;;21.67;12.13;;;;;;;11.69;72.45;98728.31;5026796;28;20029;-92
2024/03/12 16:35:30;;;;;;;19.90;12.93;;;;;;;11.70;72.20;98726.41;5041120;28;20029;-93
2024/03/12 16:37:57;;;;;;;22.23;12.57;;;;;;;11.65;72.35;98713.00;5041777;28;20043;-91
2024/03/12 16:40:22;;;;;;;22.00;12.75;;;;;;;11.69;72.99;98732.91;5026669;28;20022;-92
2024/03/12 16:42:51;;;;;;;19.15;12.52;;;;;;;11.54;73.48;98717.75;5012066;28;20470;-92
2024/03/12 16:45:19;;;;;;;23.30;12.60;;;;;;;11.64;72.78;98712.22;5025204;28;20116;-94